Terminal Aerodrome Forecast
Issued by NWS

Home | Current Version | Previous Version | Text Only | Print | Product List | Glossary On
Versions: 1 2 3 4 5 6 7 8 9 10 11 12 13 14
350
FTUS46 KPDT 201124
TAFYKM
TAF
KYKM 201124Z 2012/2112 27008KT P6SM BKN200
     FM201900 VRB04KT P6SM BKN250
     FM210300 29008KT P6SM SKC=

USA.gov is the U.S. government's official web portal to all federal, state and local government web resources and services.